Fisk, MO (63940)

6:18 PM CST on December 22, 2014 (GMT -0600)
MesoWest JUNLND MO US UPR | Change Station
CLOSE
Current Station
Personal Weather Station
Location: Fisk, MO
Elevation: 329 ft
Nearby Weather Stations

Elev 329 ft 36.77 °N, 90.26 °W | Updated 53 minutes ago

Overcast
Overcast
51 °F
Feels Like 51 °F
N
Wind Variable Wind from North
Gusts 0.0 mph

Today
High -- | Low -- °F
--% Chance of Precip.
Yesterday
High -- | Low -- °F
Precip. -- in
7:10 AM 4:48 PM
New Moon, 1% visible
Pressure 29.58 in
Visibility 6.0 miles
Clouds Overcast 800 ft
Dew Point Not available.
Humidity Not available.
Rainfall -999.00 in
Snow Depth Not available.
UV 0 out of 12
Pollen 3.90 out of 12
Air Quality Not available.
Flu Activity Not available.
METAR KPOF 222353Z AUTO 21006KT 6SM BR OVC008 12/10 A2957 RMK AO2 RAB41E53 CIG 005V012 SLP016 P0000 60007 T01170100 10117 20100 55002

More Conditions Fewer Conditions

Pressure 29.58 in
Visibility 6.0 miles
Clouds Overcast 800 ft
Dew Point Not available.
Humidity Not available.
Rainfall -999.00 in
Snow Depth Not available.
UV 0 out of 12
Pollen 3.90 out of 12
Air Quality Not available.
Flu Activity Not available.
METAR KPOF 222353Z AUTO 21006KT 6SM BR OVC008 12/10 A2957 RMK AO2 RAB41E53 CIG 005V012 SLP016 P0000 60007 T01170100 10117 20100 55002

More Conditions Fewer Conditions

10-Day Weather Forecast

Almanac

Astronomy

Dec. 22, 2014 Rise Set
Actual Time
Civil Twilight
Nautical Twilight
Astronomical Twilight
Moon
Length of Visible Light
Length of Day
Tomorrow will be .
, % of the Moon is Illuminated

Today's Extremes

State Highs State Lows

Community

WunderPhotos

Upload Photos

1,779,736 photos uploaded!

WunderBlogs® & News

Nearby

Air Quality

  Air Quality AQ Index Pollutant
Not available.

Snow Depth

Station Depth Elevation

Earthquake Activity

City Distance Mag. Time & Date
Minimum magnitude displayed is 2.5.

Coastal Water Temperatures

Place Temperature

Nearby Weather Stations